sensor_id;sensor_type;location;lat;lon;timestamp;pressure;altitude;pressure_sealevel;temperature;humidity
42761;BME280;31672;47.638;19.026;2023-05-21T00:03:59;100267.28;;;16.02;80.99
42761;BME280;31672;47.638;19.026;2023-05-21T00:09:04;100272.47;;;16.23;77.66
42761;BME280;31672;47.638;19.026;2023-05-21T00:14:08;100275.22;;;16.50;76.23
42761;BME280;31672;47.638;19.026;2023-05-21T00:19:11;100287.81;;;16.63;76.24
42761;BME280;31672;47.638;19.026;2023-05-21T00:24:15;100283.50;;;16.62;76.14
42761;BME280;31672;47.638;19.026;2023-05-21T00:29:17;100286.78;;;16.57;75.69
42761;BME280;31672;47.638;19.026;2023-05-21T00:34:20;100273.16;;;16.52;76.16
42761;BME280;31672;47.638;19.026;2023-05-21T00:39:24;100286.78;;;16.50;75.34
42761;BME280;31672;47.638;19.026;2023-05-21T00:44:27;100284.94;;;16.57;75.61
42761;BME280;31672;47.638;19.026;2023-05-21T00:49:35;100270.03;;;16.55;75.87
42761;BME280;31672;47.638;19.026;2023-05-21T00:54:38;100265.50;;;16.42;76.69
42761;BME280;31672;47.638;19.026;2023-05-21T00:59:42;100271.47;;;16.31;77.34
42761;BME280;31672;47.638;19.026;2023-05-21T01:04:45;100277.63;;;16.18;78.23
42761;BME280;31672;47.638;19.026;2023-05-21T01:09:48;100259.03;;;16.03;78.69
42761;BME280;31672;47.638;19.026;2023-05-21T01:14:52;100263.72;;;15.88;79.18
42761;BME280;31672;47.638;19.026;2023-05-21T01:19:57;100253.16;;;15.73;79.95
42761;BME280;31672;47.638;19.026;2023-05-21T01:25:00;100255.31;;;15.57;80.72
42761;BME280;31672;47.638;19.026;2023-05-21T01:30:06;100262.72;;;15.48;81.64
42761;BME280;31672;47.638;19.026;2023-05-21T01:35:21;100255.81;;;15.32;82.45
42761;BME280;31672;47.638;19.026;2023-05-21T01:45:51;100256.84;;;15.03;84.09
42761;BME280;31672;47.638;19.026;2023-05-21T01:51:03;100256.78;;;14.90;84.81
42761;BME280;31672;47.638;19.026;2023-05-21T01:56:07;100260.38;;;14.76;85.50
42761;BME280;31672;47.638;19.026;2023-05-21T02:01:10;100260.94;;;14.71;86.16
42761;BME280;31672;47.638;19.026;2023-05-21T02:06:13;100256.56;;;14.63;86.47
42761;BME280;31672;47.638;19.026;2023-05-21T02:11:16;100263.50;;;14.58;86.94
42761;BME280;31672;47.638;19.026;2023-05-21T02:16:19;100259.31;;;14.49;87.45
42761;BME280;31672;47.638;19.026;2023-05-21T02:21:24;100252.59;;;14.38;88.32
42761;BME280;31672;47.638;19.026;2023-05-21T02:26:27;100258.69;;;14.32;88.96
42761;BME280;31672;47.638;19.026;2023-05-21T02:31:30;100250.41;;;14.27;88.84
42761;BME280;31672;47.638;19.026;2023-05-21T02:36:33;100250.19;;;14.22;89.05
42761;BME280;31672;47.638;19.026;2023-05-21T02:41:38;100252.75;;;14.15;89.38
42761;BME280;31672;47.638;19.026;2023-05-21T02:46:40;100242.81;;;14.09;89.83
42761;BME280;31672;47.638;19.026;2023-05-21T02:51:44;100246.09;;;14.04;89.88
42761;BME280;31672;47.638;19.026;2023-05-21T02:56:46;100247.75;;;14.05;90.41
42761;BME280;31672;47.638;19.026;2023-05-21T03:01:49;100254.09;;;14.04;90.51
42761;BME280;31672;47.638;19.026;2023-05-21T03:06:53;100245.63;;;14.01;90.69
42761;BME280;31672;47.638;19.026;2023-05-21T03:11:56;100253.56;;;13.94;91.03
42761;BME280;31672;47.638;19.026;2023-05-21T03:17:00;100249.44;;;13.91;91.62
42761;BME280;31672;47.638;19.026;2023-05-21T03:22:05;100251.38;;;13.83;91.89
42761;BME280;31672;47.638;19.026;2023-05-21T03:27:08;100245.78;;;13.78;92.74
42761;BME280;31672;47.638;19.026;2023-05-21T03:32:12;100238.78;;;13.77;93.33
42761;BME280;31672;47.638;19.026;2023-05-21T03:37:15;100257.75;;;13.82;93.93
42761;BME280;31672;47.638;19.026;2023-05-21T03:42:18;100258.38;;;13.84;94.30
42761;BME280;31672;47.638;19.026;2023-05-21T03:47:21;100251.66;;;13.88;94.67
42761;BME280;31672;47.638;19.026;2023-05-21T03:52:24;100253.78;;;13.92;94.94
42761;BME280;31672;47.638;19.026;2023-05-21T03:57:27;100252.19;;;13.98;94.96
42761;BME280;31672;47.638;19.026;2023-05-21T04:02:31;100257.78;;;14.03;95.51
42761;BME280;31672;47.638;19.026;2023-05-21T04:07:34;100256.84;;;14.11;95.84
42761;BME280;31672;47.638;19.026;2023-05-21T04:12:39;100255.31;;;14.23;96.28
42761;BME280;31672;47.638;19.026;2023-05-21T04:17:43;100264.56;;;14.42;95.89
42761;BME280;31672;47.638;19.026;2023-05-21T04:22:47;100255.28;;;14.59;94.96
42761;BME280;31672;47.638;19.026;2023-05-21T04:27:50;100266.34;;;14.78;95.70
42761;BME280;31672;47.638;19.026;2023-05-21T04:32:54;100254.72;;;14.92;95.96
42761;BME280;31672;47.638;19.026;2023-05-21T04:37:57;100253.66;;;15.14;95.87
42761;BME280;31672;47.638;19.026;2023-05-21T04:43:00;100247.22;;;15.43;90.71
42761;BME280;31672;47.638;19.026;2023-05-21T04:48:04;100256.47;;;15.75;89.09
42761;BME280;31672;47.638;19.026;2023-05-21T04:53:07;100268.50;;;16.06;88.53
42761;BME280;31672;47.638;19.026;2023-05-21T04:58:10;100271.88;;;16.35;87.15
42761;BME280;31672;47.638;19.026;2023-05-21T05:03:13;100264.69;;;16.55;83.10
42761;BME280;31672;47.638;19.026;2023-05-21T05:08:16;100269.28;;;16.81;80.67
42761;BME280;31672;47.638;19.026;2023-05-21T05:13:19;100248.41;;;17.03;77.92
42761;BME280;31672;47.638;19.026;2023-05-21T05:18:22;100237.22;;;17.19;75.19
42761;BME280;31672;47.638;19.026;2023-05-21T05:23:26;100238.41;;;17.36;76.44
42761;BME280;31672;47.638;19.026;2023-05-21T05:28:28;100234.66;;;17.51;75.47
42761;BME280;31672;47.638;19.026;2023-05-21T05:33:31;100234.19;;;17.67;74.38
42761;BME280;31672;47.638;19.026;2023-05-21T05:38:35;100236.84;;;17.80;74.49
42761;BME280;31672;47.638;19.026;2023-05-21T05:43:37;100230.78;;;17.91;73.61
42761;BME280;31672;47.638;19.026;2023-05-21T05:48:41;100236.06;;;18.05;73.43
42761;BME280;31672;47.638;19.026;2023-05-21T05:53:44;100231.47;;;18.18;73.12
42761;BME280;31672;47.638;19.026;2023-05-21T05:58:47;100224.72;;;18.34;72.28
42761;BME280;31672;47.638;19.026;2023-05-21T06:03:50;100218.81;;;18.51;72.74
42761;BME280;31672;47.638;19.026;2023-05-21T06:08:53;100222.19;;;18.71;72.19
42761;BME280;31672;47.638;19.026;2023-05-21T06:13:57;100216.41;;;18.92;70.22
42761;BME280;31672;47.638;19.026;2023-05-21T06:19:03;100210.00;;;19.12;69.32
42761;BME280;31672;47.638;19.026;2023-05-21T06:24:06;100209.31;;;19.35;69.03
42761;BME280;31672;47.638;19.026;2023-05-21T06:29:09;100207.44;;;19.53;67.80
42761;BME280;31672;47.638;19.026;2023-05-21T06:34:12;100198.81;;;19.82;68.91
42761;BME280;31672;47.638;19.026;2023-05-21T06:39:15;100193.97;;;20.02;66.85
42761;BME280;31672;47.638;19.026;2023-05-21T06:44:19;100194.84;;;20.26;63.88
42761;BME280;31672;47.638;19.026;2023-05-21T06:49:22;100185.84;;;20.44;65.56
42761;BME280;31672;47.638;19.026;2023-05-21T06:54:25;100187.78;;;20.67;62.34
42761;BME280;31672;47.638;19.026;2023-05-21T06:59:28;100177.34;;;20.82;56.26
42761;BME280;31672;47.638;19.026;2023-05-21T07:04:32;100161.59;;;20.91;55.74
42761;BME280;31672;47.638;19.026;2023-05-21T07:09:37;100163.56;;;21.07;55.40
42761;BME280;31672;47.638;19.026;2023-05-21T07:14:41;100159.28;;;21.23;54.26
42761;BME280;31672;47.638;19.026;2023-05-21T07:19:44;100163.66;;;21.35;55.46
42761;BME280;31672;47.638;19.026;2023-05-21T07:24:47;100167.00;;;21.54;55.06
42761;BME280;31672;47.638;19.026;2023-05-21T07:29:50;100154.16;;;21.61;54.81
42761;BME280;31672;47.638;19.026;2023-05-21T07:34:54;100153.97;;;21.80;55.11
42761;BME280;31672;47.638;19.026;2023-05-21T08:08:06;100151.16;;;22.37;50.43
42761;BME280;31672;47.638;19.026;2023-05-21T08:13:14;100149.69;;;22.46;50.03
42761;BME280;31672;47.638;19.026;2023-05-21T08:18:18;100146.56;;;22.54;50.01
42761;BME280;31672;47.638;19.026;2023-05-21T08:23:21;100151.72;;;22.73;50.01
42761;BME280;31672;47.638;19.026;2023-05-21T08:28:24;100151.97;;;22.88;50.29
42761;BME280;31672;47.638;19.026;2023-05-21T08:33:29;100159.09;;;22.94;49.92
42761;BME280;31672;47.638;19.026;2023-05-21T08:38:35;100147.78;;;22.97;49.17
42761;BME280;31672;47.638;19.026;2023-05-21T08:43:39;100144.22;;;22.96;50.21
42761;BME280;31672;47.638;19.026;2023-05-21T10:14:32;100117.09;;;24.53;44.63
42761;BME280;31672;47.638;19.026;2023-05-21T10:19:37;100109.88;;;24.74;43.11
42761;BME280;31672;47.638;19.026;2023-05-21T10:24:42;100104.47;;;24.79;43.65
42761;BME280;31672;47.638;19.026;2023-05-21T10:29:47;100099.91;;;24.90;42.93
42761;BME280;31672;47.638;19.026;2023-05-21T10:34:54;100096.41;;;25.00;42.74
42761;BME280;31672;47.638;19.026;2023-05-21T10:40:00;100091.03;;;25.10;42.59
42761;BME280;31672;47.638;19.026;2023-05-21T10:45:40;100082.69;;;25.27;42.19
42761;BME280;31672;47.638;19.026;2023-05-21T11:02:25;100074.31;;;25.69;40.18
42761;BME280;31672;47.638;19.026;2023-05-21T11:07:52;100075.09;;;25.54;40.67
42761;BME280;31672;47.638;19.026;2023-05-21T11:13:15;100073.22;;;25.50;39.45
42761;BME280;31672;47.638;19.026;2023-05-21T11:18:18;100084.34;;;25.48;39.92
42761;BME280;31672;47.638;19.026;2023-05-21T11:23:22;100077.00;;;25.54;41.22
42761;BME280;31672;47.638;19.026;2023-05-21T11:28:32;100074.31;;;25.64;39.57
42761;BME280;31672;47.638;19.026;2023-05-21T11:33:36;100076.22;;;25.69;40.06
42761;BME280;31672;47.638;19.026;2023-05-21T11:38:39;100068.59;;;25.66;41.49
42761;BME280;31672;47.638;19.026;2023-05-21T11:43:43;100070.28;;;25.77;40.55
42761;BME280;31672;47.638;19.026;2023-05-21T11:48:46;100066.16;;;25.69;39.04
42761;BME280;31672;47.638;19.026;2023-05-21T11:53:50;100063.72;;;25.68;40.44
42761;BME280;31672;47.638;19.026;2023-05-21T11:58:53;100065.63;;;25.67;39.91
42761;BME280;31672;47.638;19.026;2023-05-21T12:03:57;100053.66;;;25.88;40.14
42761;BME280;31672;47.638;19.026;2023-05-21T12:09:00;100046.03;;;26.01;40.19
42761;BME280;31672;47.638;19.026;2023-05-21T12:14:06;100049.03;;;25.99;41.54
42761;BME280;31672;47.638;19.026;2023-05-21T12:19:11;100036.81;;;25.92;40.26
42761;BME280;31672;47.638;19.026;2023-05-21T12:24:15;100039.50;;;26.22;41.08
42761;BME280;31672;47.638;19.026;2023-05-21T12:29:18;100020.66;;;26.46;40.76
42761;BME280;31672;47.638;19.026;2023-05-21T12:34:47;100031.81;;;26.55;38.41
42761;BME280;31672;47.638;19.026;2023-05-21T12:39:54;100028.47;;;26.73;38.47
42761;BME280;31672;47.638;19.026;2023-05-21T12:44:57;100020.72;;;27.01;38.25
42761;BME280;31672;47.638;19.026;2023-05-21T12:50:03;100010.28;;;27.18;37.38
42761;BME280;31672;47.638;19.026;2023-05-21T12:55:13;100008.84;;;27.31;37.14
42761;BME280;31672;47.638;19.026;2023-05-21T13:00:22;100006.44;;;27.19;34.83
42761;BME280;31672;47.638;19.026;2023-05-21T13:05:26;99995.31;;;27.50;36.98
42761;BME280;31672;47.638;19.026;2023-05-21T13:10:29;99998.16;;;27.68;34.64
42761;BME280;31672;47.638;19.026;2023-05-21T13:15:32;100003.97;;;27.62;33.95
42761;BME280;31672;47.638;19.026;2023-05-21T13:20:35;99988.66;;;27.71;35.31
42761;BME280;31672;47.638;19.026;2023-05-21T13:25:39;99987.41;;;27.82;35.15
42761;BME280;31672;47.638;19.026;2023-05-21T13:30:42;99984.25;;;27.65;35.22
42761;BME280;31672;47.638;19.026;2023-05-21T13:35:45;99972.34;;;27.56;34.97
42761;BME280;31672;47.638;19.026;2023-05-21T13:40:52;99973.97;;;27.57;35.04
42761;BME280;31672;47.638;19.026;2023-05-21T13:45:55;99965.06;;;27.80;35.25
42761;BME280;31672;47.638;19.026;2023-05-21T13:50:59;99962.19;;;27.95;33.72
42761;BME280;31672;47.638;19.026;2023-05-21T13:56:03;99949.91;;;27.93;35.07
42761;BME280;31672;47.638;19.026;2023-05-21T14:01:06;99950.94;;;27.68;33.05
42761;BME280;31672;47.638;19.026;2023-05-21T14:06:10;99956.19;;;27.30;34.43
42761;BME280;31672;47.638;19.026;2023-05-21T14:11:13;99945.47;;;27.39;34.79
42761;BME280;31672;47.638;19.026;2023-05-21T14:16:16;99955.97;;;27.56;34.47
42761;BME280;31672;47.638;19.026;2023-05-21T14:21:20;99955.53;;;27.43;34.26
42761;BME280;31672;47.638;19.026;2023-05-21T14:26:24;99958.91;;;27.30;35.10
42761;BME280;31672;47.638;19.026;2023-05-21T14:31:28;99945.13;;;27.45;34.62
42761;BME280;31672;47.638;19.026;2023-05-21T14:36:32;99952.63;;;27.64;34.91
42761;BME280;31672;47.638;19.026;2023-05-21T14:41:38;99932.25;;;27.85;34.06
42761;BME280;31672;47.638;19.026;2023-05-21T14:46:41;99937.78;;;28.04;34.85
42761;BME280;31672;47.638;19.026;2023-05-21T14:51:44;99929.13;;;28.21;34.02
42761;BME280;31672;47.638;19.026;2023-05-21T14:56:51;99934.25;;;28.27;33.24
42761;BME280;31672;47.638;19.026;2023-05-21T15:01:55;99935.56;;;28.30;32.66
42761;BME280;31672;47.638;19.026;2023-05-21T15:06:58;99926.13;;;28.46;31.98
42761;BME280;31672;47.638;19.026;2023-05-21T15:12:02;99928.69;;;28.99;32.60
42761;BME280;31672;47.638;19.026;2023-05-21T15:17:05;99923.34;;;29.27;31.64
42761;BME280;31672;47.638;19.026;2023-05-21T15:22:09;99920.34;;;29.42;30.82
42761;BME280;31672;47.638;19.026;2023-05-21T15:27:12;99919.22;;;29.43;30.90
42761;BME280;31672;47.638;19.026;2023-05-21T15:32:16;99922.34;;;29.37;30.36
42761;BME280;31672;47.638;19.026;2023-05-21T15:37:20;99920.97;;;29.20;30.37
42761;BME280;31672;47.638;19.026;2023-05-21T15:42:23;99910.41;;;29.14;31.80
42761;BME280;31672;47.638;19.026;2023-05-21T15:47:26;99909.66;;;29.27;31.17
42761;BME280;31672;47.638;19.026;2023-05-21T15:52:29;99914.94;;;29.37;31.53
42761;BME280;31672;47.638;19.026;2023-05-21T15:57:32;99922.31;;;29.23;31.47
42761;BME280;31672;47.638;19.026;2023-05-21T16:02:35;99925.34;;;29.02;31.08
42761;BME280;31672;47.638;19.026;2023-05-21T16:07:40;99922.19;;;28.95;31.56
42761;BME280;31672;47.638;19.026;2023-05-21T16:12:43;99929.97;;;28.83;30.60
42761;BME280;31672;47.638;19.026;2023-05-21T16:17:47;99921.72;;;28.69;30.97
42761;BME280;31672;47.638;19.026;2023-05-21T16:22:50;99931.81;;;28.50;31.18
42761;BME280;31672;47.638;19.026;2023-05-21T16:27:53;99941.44;;;28.18;31.48
42761;BME280;31672;47.638;19.026;2023-05-21T16:32:56;99941.91;;;27.78;32.94
42761;BME280;31672;47.638;19.026;2023-05-21T16:38:00;99941.88;;;27.43;33.43
42761;BME280;31672;47.638;19.026;2023-05-21T16:43:03;99952.47;;;27.16;33.57
42761;BME280;31672;47.638;19.026;2023-05-21T16:48:07;99951.75;;;26.95;34.18
42761;BME280;31672;47.638;19.026;2023-05-21T16:53:10;99953.50;;;26.76;35.11
42761;BME280;31672;47.638;19.026;2023-05-21T16:58:13;99956.03;;;26.57;36.55
42761;BME280;31672;47.638;19.026;2023-05-21T17:03:16;99956.69;;;26.28;36.67
42761;BME280;31672;47.638;19.026;2023-05-21T17:08:19;99958.38;;;26.04;37.20
42761;BME280;31672;47.638;19.026;2023-05-21T17:13:22;99962.50;;;25.86;39.92
42761;BME280;31672;47.638;19.026;2023-05-21T17:18:25;99960.84;;;25.65;39.29
42761;BME280;31672;47.638;19.026;2023-05-21T17:23:28;99962.19;;;25.47;41.02
42761;BME280;31672;47.638;19.026;2023-05-21T17:28:32;99949.94;;;25.24;41.09
42761;BME280;31672;47.638;19.026;2023-05-21T17:33:36;99950.72;;;25.04;43.59
42761;BME280;31672;47.638;19.026;2023-05-21T17:38:39;99958.25;;;24.76;44.50
42761;BME280;31672;47.638;19.026;2023-05-21T17:43:42;99959.75;;;24.37;45.49
42761;BME280;31672;47.638;19.026;2023-05-21T17:48:45;99966.25;;;23.98;45.89
42761;BME280;31672;47.638;19.026;2023-05-21T17:53:49;99972.56;;;23.67;47.02
42761;BME280;31672;47.638;19.026;2023-05-21T17:58:52;99967.63;;;23.32;47.52
42761;BME280;31672;47.638;19.026;2023-05-21T18:03:55;99972.81;;;23.06;48.71
42761;BME280;31672;47.638;19.026;2023-05-21T18:08:58;99978.63;;;22.71;49.23
42761;BME280;31672;47.638;19.026;2023-05-21T18:14:01;99975.28;;;22.42;50.46
42761;BME280;31672;47.638;19.026;2023-05-21T18:19:05;99982.97;;;22.11;51.94
42761;BME280;31672;47.638;19.026;2023-05-21T18:24:09;99980.28;;;21.78;52.67
42761;BME280;31672;47.638;19.026;2023-05-21T18:29:12;99980.38;;;21.49;53.91
42761;BME280;31672;47.638;19.026;2023-05-21T18:34:16;99967.44;;;21.23;54.29
42761;BME280;31672;47.638;19.026;2023-05-21T18:39:19;99980.47;;;20.97;54.26
42761;BME280;31672;47.638;19.026;2023-05-21T18:44:26;99992.53;;;20.78;55.54
42761;BME280;31672;47.638;19.026;2023-05-21T18:49:29;99992.00;;;20.52;57.01
42761;BME280;31672;47.638;19.026;2023-05-21T18:54:35;99995.28;;;20.31;57.88
42761;BME280;31672;47.638;19.026;2023-05-21T18:59:38;99997.88;;;20.14;58.50
42761;BME280;31672;47.638;19.026;2023-05-21T19:04:45;100013.13;;;19.97;59.34
42761;BME280;31672;47.638;19.026;2023-05-21T19:09:48;100011.72;;;19.83;60.04
42761;BME280;31672;47.638;19.026;2023-05-21T19:14:52;100015.31;;;19.65;60.75
42761;BME280;31672;47.638;19.026;2023-05-21T19:19:55;100028.47;;;19.43;61.98
42761;BME280;31672;47.638;19.026;2023-05-21T19:24:58;100028.53;;;19.24;63.53
42761;BME280;31672;47.638;19.026;2023-05-21T19:30:02;100038.09;;;19.09;63.88
42761;BME280;31672;47.638;19.026;2023-05-21T19:35:06;100039.44;;;18.99;64.36
42761;BME280;31672;47.638;19.026;2023-05-21T19:40:09;100037.66;;;18.93;64.67
42761;BME280;31672;47.638;19.026;2023-05-21T19:45:12;100041.09;;;18.82;65.34
42761;BME280;31672;47.638;19.026;2023-05-21T19:50:17;100036.97;;;18.61;66.62
42761;BME280;31672;47.638;19.026;2023-05-21T19:55:20;100036.66;;;18.51;68.06
42761;BME280;31672;47.638;19.026;2023-05-21T20:00:24;100035.53;;;18.40;69.01
42761;BME280;31672;47.638;19.026;2023-05-21T20:05:28;100031.94;;;18.28;68.95
42761;BME280;31672;47.638;19.026;2023-05-21T20:10:31;100035.34;;;18.17;69.55
42761;BME280;31672;47.638;19.026;2023-05-21T20:15:34;100032.13;;;18.08;70.20
42761;BME280;31672;47.638;19.026;2023-05-21T20:20:37;100040.09;;;17.97;70.91
42761;BME280;31672;47.638;19.026;2023-05-21T20:25:41;100034.19;;;17.88;71.63
42761;BME280;31672;47.638;19.026;2023-05-21T20:30:54;100031.31;;;17.83;72.39
42761;BME280;31672;47.638;19.026;2023-05-21T20:36:01;100034.22;;;17.81;72.80
42761;BME280;31672;47.638;19.026;2023-05-21T20:41:04;100025.72;;;17.84;73.10
42761;BME280;31672;47.638;19.026;2023-05-21T20:46:07;100033.19;;;17.82;72.59
42761;BME280;31672;47.638;19.026;2023-05-21T20:51:11;100031.97;;;17.78;71.58
42761;BME280;31672;47.638;19.026;2023-05-21T20:56:14;100034.88;;;17.77;71.17
42761;BME280;31672;47.638;19.026;2023-05-21T21:01:28;100032.19;;;17.77;71.19
42761;BME280;31672;47.638;19.026;2023-05-21T21:06:32;100030.34;;;17.71;70.87
42761;BME280;31672;47.638;19.026;2023-05-21T21:11:35;100027.09;;;17.62;71.90
42761;BME280;31672;47.638;19.026;2023-05-21T21:16:38;100044.06;;;17.56;72.61
42761;BME280;31672;47.638;19.026;2023-05-21T21:21:41;100080.13;;;17.42;73.43
42761;BME280;31672;47.638;19.026;2023-05-21T21:26:44;100059.88;;;17.39;74.56
42761;BME280;31672;47.638;19.026;2023-05-21T21:31:47;100065.25;;;17.39;74.63
42761;BME280;31672;47.638;19.026;2023-05-21T21:36:53;100064.00;;;17.42;74.58
42761;BME280;31672;47.638;19.026;2023-05-21T21:41:56;100063.63;;;17.38;74.47
42761;BME280;31672;47.638;19.026;2023-05-21T21:46:59;100061.16;;;17.36;74.03
42761;BME280;31672;47.638;19.026;2023-05-21T21:52:02;100060.72;;;17.39;74.66
42761;BME280;31672;47.638;19.026;2023-05-21T21:57:05;100064.00;;;17.42;74.52
42761;BME280;31672;47.638;19.026;2023-05-21T22:02:08;100059.47;;;17.42;74.51
42761;BME280;31672;47.638;19.026;2023-05-21T22:07:11;100059.88;;;17.39;74.82
42761;BME280;31672;47.638;19.026;2023-05-21T22:12:18;100058.69;;;17.35;75.19
42761;BME280;31672;47.638;19.026;2023-05-21T22:17:21;100057.25;;;17.32;75.28
42761;BME280;31672;47.638;19.026;2023-05-21T22:22:25;100060.78;;;17.26;74.72
42761;BME280;31672;47.638;19.026;2023-05-21T22:27:28;100059.78;;;17.21;73.77
42761;BME280;31672;47.638;19.026;2023-05-21T22:32:32;100064.78;;;17.17;73.46
42761;BME280;31672;47.638;19.026;2023-05-21T22:37:35;100055.47;;;17.13;73.35
42761;BME280;31672;47.638;19.026;2023-05-21T22:42:39;100055.09;;;17.09;72.56
42761;BME280;31672;47.638;19.026;2023-05-21T22:47:42;100063.34;;;17.08;71.65
42761;BME280;31672;47.638;19.026;2023-05-21T22:52:45;100067.72;;;17.02;71.50
42761;BME280;31672;47.638;19.026;2023-05-21T22:57:48;100077.88;;;16.94;71.74
42761;BME280;31672;47.638;19.026;2023-05-21T23:02:51;100070.06;;;16.85;72.15
42761;BME280;31672;47.638;19.026;2023-05-21T23:07:56;100067.00;;;16.75;71.84
42761;BME280;31672;47.638;19.026;2023-05-21T23:12:59;100069.50;;;16.70;71.72
42761;BME280;31672;47.638;19.026;2023-05-21T23:18:02;100072.16;;;16.64;71.52
42761;BME280;31672;47.638;19.026;2023-05-21T23:23:05;100067.19;;;16.67;71.93
42761;BME280;31672;47.638;19.026;2023-05-21T23:28:09;100069.69;;;16.69;71.76
42761;BME280;31672;47.638;19.026;2023-05-21T23:33:12;100075.69;;;16.57;71.58
42761;BME280;31672;47.638;19.026;2023-05-21T23:38:15;100070.75;;;16.48;71.88
42761;BME280;31672;47.638;19.026;2023-05-21T23:43:18;100064.81;;;16.26;72.18
42761;BME280;31672;47.638;19.026;2023-05-21T23:48:21;100059.84;;;16.16;72.90
42761;BME280;31672;47.638;19.026;2023-05-21T23:53:24;100069.34;;;15.99;73.76
42761;BME280;31672;47.638;19.026;2023-05-21T23:58:28;100066.88;;;15.84;74.28
